sensor_id;sensor_type;location;lat;lon;timestamp;temperature;humidity
32522;DHT22;18963;51.504;5.316;2023-04-28T00:00:01;8.70;99.90
32522;DHT22;18963;51.504;5.316;2023-04-28T00:02:29;8.70;99.90
32522;DHT22;18963;51.504;5.316;2023-04-28T00:04:54;8.70;99.90
32522;DHT22;18963;51.504;5.316;2023-04-28T00:07:20;8.60;99.90
32522;DHT22;18963;51.504;5.316;2023-04-28T00:09:45;8.50;99.90
32522;DHT22;18963;51.504;5.316;2023-04-28T00:12:11;8.60;99.90
32522;DHT22;18963;51.504;5.316;2023-04-28T00:14:36;8.60;99.90
32522;DHT22;18963;51.504;5.316;2023-04-28T00:17:02;8.60;99.90
32522;DHT22;18963;51.504;5.316;2023-04-28T00:19:27;8.50;99.90
32522;DHT22;18963;51.504;5.316;2023-04-28T00:21:53;8.60;99.90
32522;DHT22;18963;51.504;5.316;2023-04-28T00:24:19;8.50;99.90
32522;DHT22;18963;51.504;5.316;2023-04-28T00:26:44;8.40;99.90
32522;DHT22;18963;51.504;5.316;2023-04-28T00:29:10;8.40;99.90
32522;DHT22;18963;51.504;5.316;2023-04-28T00:31:35;8.40;99.90
32522;DHT22;18963;51.504;5.316;2023-04-28T00:34:01;8.30;99.90
32522;DHT22;18963;51.504;5.316;2023-04-28T00:36:26;8.30;99.90
32522;DHT22;18963;51.504;5.316;2023-04-28T00:38:56;8.30;99.90
32522;DHT22;18963;51.504;5.316;2023-04-28T00:41:22;8.20;99.90
32522;DHT22;18963;51.504;5.316;2023-04-28T00:43:48;8.10;99.90
32522;DHT22;18963;51.504;5.316;2023-04-28T00:46:23;8.10;99.90
32522;DHT22;18963;51.504;5.316;2023-04-28T00:48:49;8.00;99.90
32522;DHT22;18963;51.504;5.316;2023-04-28T00:51:15;8.10;99.90
32522;DHT22;18963;51.504;5.316;2023-04-28T00:53:42;8.00;99.90
32522;DHT22;18963;51.504;5.316;2023-04-28T00:56:08;8.00;99.90
32522;DHT22;18963;51.504;5.316;2023-04-28T00:58:34;8.00;99.90
32522;DHT22;18963;51.504;5.316;2023-04-28T01:01:06;8.00;99.90
32522;DHT22;18963;51.504;5.316;2023-04-28T01:03:39;7.90;99.90
32522;DHT22;18963;51.504;5.316;2023-04-28T01:06:06;7.90;99.90
32522;DHT22;18963;51.504;5.316;2023-04-28T01:08:33;7.90;99.90
32522;DHT22;18963;51.504;5.316;2023-04-28T01:10:59;7.90;99.90
32522;DHT22;18963;51.504;5.316;2023-04-28T01:13:26;7.90;99.90
32522;DHT22;18963;51.504;5.316;2023-04-28T01:15:52;7.90;99.90
32522;DHT22;18963;51.504;5.316;2023-04-28T01:18:17;8.00;99.90
32522;DHT22;18963;51.504;5.316;2023-04-28T01:20:43;8.00;99.90
32522;DHT22;18963;51.504;5.316;2023-04-28T01:23:12;8.00;99.90
32522;DHT22;18963;51.504;5.316;2023-04-28T01:25:39;8.00;99.90
32522;DHT22;18963;51.504;5.316;2023-04-28T01:28:04;7.90;99.90
32522;DHT22;18963;51.504;5.316;2023-04-28T01:30:30;7.90;99.90
32522;DHT22;18963;51.504;5.316;2023-04-28T01:32:56;8.00;99.90
32522;DHT22;18963;51.504;5.316;2023-04-28T01:35:21;7.90;99.90
32522;DHT22;18963;51.504;5.316;2023-04-28T01:37:47;8.00;99.90
32522;DHT22;18963;51.504;5.316;2023-04-28T01:40:12;7.90;99.90
32522;DHT22;18963;51.504;5.316;2023-04-28T01:42:38;7.90;99.90
32522;DHT22;18963;51.504;5.316;2023-04-28T01:45:03;7.90;99.90
32522;DHT22;18963;51.504;5.316;2023-04-28T01:47:30;7.90;99.90
32522;DHT22;18963;51.504;5.316;2023-04-28T01:49:55;7.90;99.90
32522;DHT22;18963;51.504;5.316;2023-04-28T01:52:21;7.90;99.90
32522;DHT22;18963;51.504;5.316;2023-04-28T01:54:49;7.90;99.90
32522;DHT22;18963;51.504;5.316;2023-04-28T01:57:14;8.00;99.90
32522;DHT22;18963;51.504;5.316;2023-04-28T01:59:40;8.00;99.90
32522;DHT22;18963;51.504;5.316;2023-04-28T02:02:06;8.00;99.90
32522;DHT22;18963;51.504;5.316;2023-04-28T02:04:31;7.90;99.90
32522;DHT22;18963;51.504;5.316;2023-04-28T02:06:57;8.00;99.90
32522;DHT22;18963;51.504;5.316;2023-04-28T02:09:23;8.00;99.90
32522;DHT22;18963;51.504;5.316;2023-04-28T02:11:48;7.90;99.90
32522;DHT22;18963;51.504;5.316;2023-04-28T02:14:14;7.90;99.90
32522;DHT22;18963;51.504;5.316;2023-04-28T02:16:40;7.90;99.90
32522;DHT22;18963;51.504;5.316;2023-04-28T02:19:05;7.90;99.90
32522;DHT22;18963;51.504;5.316;2023-04-28T02:21:31;8.00;99.90
32522;DHT22;18963;51.504;5.316;2023-04-28T02:23:57;8.00;99.90
32522;DHT22;18963;51.504;5.316;2023-04-28T02:26:23;8.00;99.90
32522;DHT22;18963;51.504;5.316;2023-04-28T02:28:48;8.00;99.90
32522;DHT22;18963;51.504;5.316;2023-04-28T02:31:14;8.00;99.90
32522;DHT22;18963;51.504;5.316;2023-04-28T02:33:40;8.10;99.90
32522;DHT22;18963;51.504;5.316;2023-04-28T02:36:09;8.10;99.90
32522;DHT22;18963;51.504;5.316;2023-04-28T02:38:35;8.10;99.90
32522;DHT22;18963;51.504;5.316;2023-04-28T02:41:02;8.10;99.90
32522;DHT22;18963;51.504;5.316;2023-04-28T02:43:29;8.10;99.90
32522;DHT22;18963;51.504;5.316;2023-04-28T02:45:55;8.20;99.90
32522;DHT22;18963;51.504;5.316;2023-04-28T02:48:21;8.20;99.90
32522;DHT22;18963;51.504;5.316;2023-04-28T02:50:47;8.20;99.90
32522;DHT22;18963;51.504;5.316;2023-04-28T02:53:12;8.20;99.90
32522;DHT22;18963;51.504;5.316;2023-04-28T02:55:38;8.20;99.90
32522;DHT22;18963;51.504;5.316;2023-04-28T02:58:03;8.20;99.90
32522;DHT22;18963;51.504;5.316;2023-04-28T03:00:29;8.20;99.90
32522;DHT22;18963;51.504;5.316;2023-04-28T03:02:55;8.20;99.90
32522;DHT22;18963;51.504;5.316;2023-04-28T03:05:20;8.20;99.90
32522;DHT22;18963;51.504;5.316;2023-04-28T03:07:46;8.20;99.90
32522;DHT22;18963;51.504;5.316;2023-04-28T03:10:11;8.20;99.90
32522;DHT22;18963;51.504;5.316;2023-04-28T03:12:37;8.20;99.90
32522;DHT22;18963;51.504;5.316;2023-04-28T03:15:03;8.20;99.90
32522;DHT22;18963;51.504;5.316;2023-04-28T03:17:28;8.30;99.90
32522;DHT22;18963;51.504;5.316;2023-04-28T03:19:54;8.30;99.90
32522;DHT22;18963;51.504;5.316;2023-04-28T03:22:19;8.40;99.90
32522;DHT22;18963;51.504;5.316;2023-04-28T03:24:45;8.40;99.90
32522;DHT22;18963;51.504;5.316;2023-04-28T03:27:11;8.40;99.90
32522;DHT22;18963;51.504;5.316;2023-04-28T03:29:36;8.40;99.90
32522;DHT22;18963;51.504;5.316;2023-04-28T03:32:02;8.40;99.90
32522;DHT22;18963;51.504;5.316;2023-04-28T03:34:27;8.40;99.90
32522;DHT22;18963;51.504;5.316;2023-04-28T03:36:53;8.40;99.90
32522;DHT22;18963;51.504;5.316;2023-04-28T03:39:18;8.40;99.90
32522;DHT22;18963;51.504;5.316;2023-04-28T03:41:44;8.40;99.90
32522;DHT22;18963;51.504;5.316;2023-04-28T03:44:09;8.50;99.90
32522;DHT22;18963;51.504;5.316;2023-04-28T03:46:35;8.50;99.90
32522;DHT22;18963;51.504;5.316;2023-04-28T03:49:00;8.60;99.90
32522;DHT22;18963;51.504;5.316;2023-04-28T03:51:29;8.60;99.90
32522;DHT22;18963;51.504;5.316;2023-04-28T03:53:54;8.60;99.90
32522;DHT22;18963;51.504;5.316;2023-04-28T03:56:20;8.60;99.90
32522;DHT22;18963;51.504;5.316;2023-04-28T03:58:46;8.70;99.90
32522;DHT22;18963;51.504;5.316;2023-04-28T04:01:11;8.70;99.90
32522;DHT22;18963;51.504;5.316;2023-04-28T04:03:37;8.70;99.90
32522;DHT22;18963;51.504;5.316;2023-04-28T04:06:03;8.70;99.90
32522;DHT22;18963;51.504;5.316;2023-04-28T04:08:28;8.80;99.90
32522;DHT22;18963;51.504;5.316;2023-04-28T04:10:54;8.80;99.90
32522;DHT22;18963;51.504;5.316;2023-04-28T04:13:20;8.80;99.90
32522;DHT22;18963;51.504;5.316;2023-04-28T04:15:46;8.80;99.90
32522;DHT22;18963;51.504;5.316;2023-04-28T04:18:12;8.80;99.90
32522;DHT22;18963;51.504;5.316;2023-04-28T04:20:39;8.80;99.90
32522;DHT22;18963;51.504;5.316;2023-04-28T04:23:04;8.80;99.90
32522;DHT22;18963;51.504;5.316;2023-04-28T04:25:30;8.80;99.90
32522;DHT22;18963;51.504;5.316;2023-04-28T04:27:57;8.80;99.90
32522;DHT22;18963;51.504;5.316;2023-04-28T04:30:22;8.80;99.90
32522;DHT22;18963;51.504;5.316;2023-04-28T04:32:48;8.80;99.90
32522;DHT22;18963;51.504;5.316;2023-04-28T04:35:13;8.80;99.90
32522;DHT22;18963;51.504;5.316;2023-04-28T04:37:39;8.80;99.90
32522;DHT22;18963;51.504;5.316;2023-04-28T04:40:05;8.90;99.90
32522;DHT22;18963;51.504;5.316;2023-04-28T04:42:31;8.90;99.90
32522;DHT22;18963;51.504;5.316;2023-04-28T04:44:56;8.90;99.90
32522;DHT22;18963;51.504;5.316;2023-04-28T04:47:22;9.00;99.90
32522;DHT22;18963;51.504;5.316;2023-04-28T04:49:48;9.00;99.90
32522;DHT22;18963;51.504;5.316;2023-04-28T04:52:16;9.00;99.90
32522;DHT22;18963;51.504;5.316;2023-04-28T04:54:44;9.00;99.90
32522;DHT22;18963;51.504;5.316;2023-04-28T04:57:10;9.10;99.90
32522;DHT22;18963;51.504;5.316;2023-04-28T04:59:36;9.10;99.90
32522;DHT22;18963;51.504;5.316;2023-04-28T05:02:01;9.20;99.90
32522;DHT22;18963;51.504;5.316;2023-04-28T05:04:27;9.20;99.90
32522;DHT22;18963;51.504;5.316;2023-04-28T05:06:53;9.20;99.90
32522;DHT22;18963;51.504;5.316;2023-04-28T05:09:18;9.30;99.90
32522;DHT22;18963;51.504;5.316;2023-04-28T05:11:44;9.30;99.90
32522;DHT22;18963;51.504;5.316;2023-04-28T05:14:10;9.40;99.90
32522;DHT22;18963;51.504;5.316;2023-04-28T05:16:37;9.40;99.90
32522;DHT22;18963;51.504;5.316;2023-04-28T05:19:03;9.50;99.90
32522;DHT22;18963;51.504;5.316;2023-04-28T05:21:29;9.50;99.90
32522;DHT22;18963;51.504;5.316;2023-04-28T05:23:55;9.50;99.90
32522;DHT22;18963;51.504;5.316;2023-04-28T05:26:22;9.60;99.90
32522;DHT22;18963;51.504;5.316;2023-04-28T05:28:47;9.60;99.90
32522;DHT22;18963;51.504;5.316;2023-04-28T05:31:13;9.70;99.90
32522;DHT22;18963;51.504;5.316;2023-04-28T05:33:38;9.70;99.90
32522;DHT22;18963;51.504;5.316;2023-04-28T05:36:04;9.80;99.90
32522;DHT22;18963;51.504;5.316;2023-04-28T05:38:30;9.70;99.90
32522;DHT22;18963;51.504;5.316;2023-04-28T05:40:57;9.80;99.90
32522;DHT22;18963;51.504;5.316;2023-04-28T05:43:22;9.90;99.90
32522;DHT22;18963;51.504;5.316;2023-04-28T05:45:48;9.90;99.90
32522;DHT22;18963;51.504;5.316;2023-04-28T05:48:13;10.00;99.90
32522;DHT22;18963;51.504;5.316;2023-04-28T05:50:40;10.00;99.90
32522;DHT22;18963;51.504;5.316;2023-04-28T05:53:06;10.10;99.90
32522;DHT22;18963;51.504;5.316;2023-04-28T05:55:32;10.20;99.90
32522;DHT22;18963;51.504;5.316;2023-04-28T05:57:58;10.20;99.90
32522;DHT22;18963;51.504;5.316;2023-04-28T06:00:24;10.30;99.90
32522;DHT22;18963;51.504;5.316;2023-04-28T06:02:49;10.40;99.90
32522;DHT22;18963;51.504;5.316;2023-04-28T06:05:15;10.40;99.90
32522;DHT22;18963;51.504;5.316;2023-04-28T06:07:41;10.40;99.90
32522;DHT22;18963;51.504;5.316;2023-04-28T06:10:07;10.40;99.90
32522;DHT22;18963;51.504;5.316;2023-04-28T06:12:33;10.50;99.90
32522;DHT22;18963;51.504;5.316;2023-04-28T06:14:58;10.60;99.90
32522;DHT22;18963;51.504;5.316;2023-04-28T06:17:24;10.60;99.90
32522;DHT22;18963;51.504;5.316;2023-04-28T06:19:49;10.60;99.90
32522;DHT22;18963;51.504;5.316;2023-04-28T06:22:18;10.60;99.90
32522;DHT22;18963;51.504;5.316;2023-04-28T06:24:44;10.70;99.90
32522;DHT22;18963;51.504;5.316;2023-04-28T06:27:09;10.70;99.90
32522;DHT22;18963;51.504;5.316;2023-04-28T06:29:35;10.70;99.90
32522;DHT22;18963;51.504;5.316;2023-04-28T06:32:00;10.80;99.90
32522;DHT22;18963;51.504;5.316;2023-04-28T06:34:26;10.70;99.90
32522;DHT22;18963;51.504;5.316;2023-04-28T06:36:53;10.80;99.90
32522;DHT22;18963;51.504;5.316;2023-04-28T06:39:20;10.80;99.90
32522;DHT22;18963;51.504;5.316;2023-04-28T06:41:46;10.80;99.90
32522;DHT22;18963;51.504;5.316;2023-04-28T06:44:12;10.90;99.90
32522;DHT22;18963;51.504;5.316;2023-04-28T06:46:37;10.90;99.90
32522;DHT22;18963;51.504;5.316;2023-04-28T06:49:03;11.00;99.90
32522;DHT22;18963;51.504;5.316;2023-04-28T06:51:30;11.00;99.90
32522;DHT22;18963;51.504;5.316;2023-04-28T06:53:58;11.00;99.90
32522;DHT22;18963;51.504;5.316;2023-04-28T06:56:24;11.00;99.90
32522;DHT22;18963;51.504;5.316;2023-04-28T06:58:50;11.10;99.90
32522;DHT22;18963;51.504;5.316;2023-04-28T07:01:16;11.20;99.90
32522;DHT22;18963;51.504;5.316;2023-04-28T07:03:43;11.20;99.90
32522;DHT22;18963;51.504;5.316;2023-04-28T07:06:08;11.30;99.90
32522;DHT22;18963;51.504;5.316;2023-04-28T07:08:34;11.30;99.90
32522;DHT22;18963;51.504;5.316;2023-04-28T07:11:01;11.30;99.90
32522;DHT22;18963;51.504;5.316;2023-04-28T07:13:29;11.40;99.90
32522;DHT22;18963;51.504;5.316;2023-04-28T07:15:55;11.50;99.90
32522;DHT22;18963;51.504;5.316;2023-04-28T07:18:20;11.60;99.90
32522;DHT22;18963;51.504;5.316;2023-04-28T07:20:46;11.60;99.90
32522;DHT22;18963;51.504;5.316;2023-04-28T07:23:12;11.60;99.90
32522;DHT22;18963;51.504;5.316;2023-04-28T07:25:38;11.70;99.90
32522;DHT22;18963;51.504;5.316;2023-04-28T07:28:05;11.70;99.90
32522;DHT22;18963;51.504;5.316;2023-04-28T07:30:31;11.70;99.90
32522;DHT22;18963;51.504;5.316;2023-04-28T07:32:57;11.80;99.90
32522;DHT22;18963;51.504;5.316;2023-04-28T07:35:23;11.80;99.90
32522;DHT22;18963;51.504;5.316;2023-04-28T07:37:49;11.80;99.90
32522;DHT22;18963;51.504;5.316;2023-04-28T07:40:15;11.90;99.90
32522;DHT22;18963;51.504;5.316;2023-04-28T07:42:40;12.00;99.90
32522;DHT22;18963;51.504;5.316;2023-04-28T07:45:07;12.00;99.90
32522;DHT22;18963;51.504;5.316;2023-04-28T07:47:33;12.00;99.90
32522;DHT22;18963;51.504;5.316;2023-04-28T07:49:58;12.00;99.90
32522;DHT22;18963;51.504;5.316;2023-04-28T07:52:27;12.00;99.90
32522;DHT22;18963;51.504;5.316;2023-04-28T07:54:53;12.00;99.90
32522;DHT22;18963;51.504;5.316;2023-04-28T07:57:18;12.10;99.90
32522;DHT22;18963;51.504;5.316;2023-04-28T07:59:44;12.10;99.90
32522;DHT22;18963;51.504;5.316;2023-04-28T08:02:10;12.20;99.90
32522;DHT22;18963;51.504;5.316;2023-04-28T08:04:38;12.20;99.90
32522;DHT22;18963;51.504;5.316;2023-04-28T08:07:03;12.30;99.90
32522;DHT22;18963;51.504;5.316;2023-04-28T08:09:29;12.30;99.90
32522;DHT22;18963;51.504;5.316;2023-04-28T08:11:55;12.30;99.90
32522;DHT22;18963;51.504;5.316;2023-04-28T08:14:20;12.30;99.90
32522;DHT22;18963;51.504;5.316;2023-04-28T08:16:46;12.40;99.90
32522;DHT22;18963;51.504;5.316;2023-04-28T08:19:12;12.40;99.90
32522;DHT22;18963;51.504;5.316;2023-04-28T08:21:38;12.40;99.90
32522;DHT22;18963;51.504;5.316;2023-04-28T08:24:04;12.40;99.90
32522;DHT22;18963;51.504;5.316;2023-04-28T08:26:30;12.50;99.90
32522;DHT22;18963;51.504;5.316;2023-04-28T08:28:56;12.50;99.90
32522;DHT22;18963;51.504;5.316;2023-04-28T08:31:22;12.60;99.90
32522;DHT22;18963;51.504;5.316;2023-04-28T08:33:48;12.70;99.90
32522;DHT22;18963;51.504;5.316;2023-04-28T08:36:16;12.80;99.90
32522;DHT22;18963;51.504;5.316;2023-04-28T08:38:43;12.90;99.90
32522;DHT22;18963;51.504;5.316;2023-04-28T08:41:09;13.00;99.90
32522;DHT22;18963;51.504;5.316;2023-04-28T08:43:35;13.20;99.90
32522;DHT22;18963;51.504;5.316;2023-04-28T08:46:05;13.30;99.90
32522;DHT22;18963;51.504;5.316;2023-04-28T08:48:40;13.40;99.90
32522;DHT22;18963;51.504;5.316;2023-04-28T08:51:06;13.50;99.90
32522;DHT22;18963;51.504;5.316;2023-04-28T08:53:36;13.50;99.90
32522;DHT22;18963;51.504;5.316;2023-04-28T08:56:05;13.60;99.90
32522;DHT22;18963;51.504;5.316;2023-04-28T08:58:32;13.70;99.90
32522;DHT22;18963;51.504;5.316;2023-04-28T09:00:59;13.70;99.90
32522;DHT22;18963;51.504;5.316;2023-04-28T09:03:27;13.70;99.90
32522;DHT22;18963;51.504;5.316;2023-04-28T09:05:53;13.80;99.90
32522;DHT22;18963;51.504;5.316;2023-04-28T09:08:18;13.80;99.90
32522;DHT22;18963;51.504;5.316;2023-04-28T09:10:44;13.80;99.90
32522;DHT22;18963;51.504;5.316;2023-04-28T09:13:23;13.80;99.90
32522;DHT22;18963;51.504;5.316;2023-04-28T09:15:50;13.90;99.90
32522;DHT22;18963;51.504;5.316;2023-04-28T09:18:15;14.10;99.90
32522;DHT22;18963;51.504;5.316;2023-04-28T09:20:41;14.10;99.90
32522;DHT22;18963;51.504;5.316;2023-04-28T09:23:18;14.20;99.90
32522;DHT22;18963;51.504;5.316;2023-04-28T09:28:33;14.30;99.90
32522;DHT22;18963;51.504;5.316;2023-04-28T09:30:59;14.30;99.90
32522;DHT22;18963;51.504;5.316;2023-04-28T09:33:25;14.30;99.90
32522;DHT22;18963;51.504;5.316;2023-04-28T09:35:51;14.40;99.90
32522;DHT22;18963;51.504;5.316;2023-04-28T09:38:18;14.50;99.90
32522;DHT22;18963;51.504;5.316;2023-04-28T09:41:11;14.50;99.90
32522;DHT22;18963;51.504;5.316;2023-04-28T09:43:36;14.50;99.90
32522;DHT22;18963;51.504;5.316;2023-04-28T09:46:04;14.40;99.90
32522;DHT22;18963;51.504;5.316;2023-04-28T09:48:34;14.40;99.90
32522;DHT22;18963;51.504;5.316;2023-04-28T09:51:02;14.30;99.90
32522;DHT22;18963;51.504;5.316;2023-04-28T09:53:29;14.20;99.90
32522;DHT22;18963;51.504;5.316;2023-04-28T09:55:58;14.20;99.90
32522;DHT22;18963;51.504;5.316;2023-04-28T09:58:26;14.10;99.90
32522;DHT22;18963;51.504;5.316;2023-04-28T10:00:56;14.10;99.90
32522;DHT22;18963;51.504;5.316;2023-04-28T10:03:26;14.10;99.90
32522;DHT22;18963;51.504;5.316;2023-04-28T10:05:53;14.10;99.90
32522;DHT22;18963;51.504;5.316;2023-04-28T10:08:23;14.10;99.90
32522;DHT22;18963;51.504;5.316;2023-04-28T10:10:50;14.10;99.90
32522;DHT22;18963;51.504;5.316;2023-04-28T10:13:19;14.20;99.90
32522;DHT22;18963;51.504;5.316;2023-04-28T10:15:46;14.20;99.90
32522;DHT22;18963;51.504;5.316;2023-04-28T10:18:12;14.30;99.90
32522;DHT22;18963;51.504;5.316;2023-04-28T10:20:43;14.30;99.90
32522;DHT22;18963;51.504;5.316;2023-04-28T10:23:16;14.40;99.90
32522;DHT22;18963;51.504;5.316;2023-04-28T10:25:47;14.50;99.90
32522;DHT22;18963;51.504;5.316;2023-04-28T10:28:14;14.50;99.90
32522;DHT22;18963;51.504;5.316;2023-04-28T10:30:40;14.50;99.90
32522;DHT22;18963;51.504;5.316;2023-04-28T10:35:47;14.60;99.90
32522;DHT22;18963;51.504;5.316;2023-04-28T10:38:13;14.60;99.90
32522;DHT22;18963;51.504;5.316;2023-04-28T10:40:41;14.70;99.90
32522;DHT22;18963;51.504;5.316;2023-04-28T10:43:11;14.80;99.90
32522;DHT22;18963;51.504;5.316;2023-04-28T10:56:19;15.40;99.90
32522;DHT22;18963;51.504;5.316;2023-04-28T10:58:50;15.60;99.90
32522;DHT22;18963;51.504;5.316;2023-04-28T11:06:21;15.90;99.90
32522;DHT22;18963;51.504;5.316;2023-04-28T11:08:50;15.90;99.90
32522;DHT22;18963;51.504;5.316;2023-04-28T11:13:43;15.90;99.90
32522;DHT22;18963;51.504;5.316;2023-04-28T11:16:13;16.00;99.90
32522;DHT22;18963;51.504;5.316;2023-04-28T11:21:21;16.00;99.90
32522;DHT22;18963;51.504;5.316;2023-04-28T11:23:48;16.00;99.90
32522;DHT22;18963;51.504;5.316;2023-04-28T11:26:14;16.20;99.90
32522;DHT22;18963;51.504;5.316;2023-04-28T11:28:54;16.20;99.90
32522;DHT22;18963;51.504;5.316;2023-04-28T11:31:22;16.20;99.90
32522;DHT22;18963;51.504;5.316;2023-04-28T11:33:57;16.20;99.90
32522;DHT22;18963;51.504;5.316;2023-04-28T11:38:58;16.10;99.90
32522;DHT22;18963;51.504;5.316;2023-04-28T11:41:24;16.00;99.90
32522;DHT22;18963;51.504;5.316;2023-04-28T11:43:51;16.00;99.90
32522;DHT22;18963;51.504;5.316;2023-04-28T11:46:18;15.90;99.90
32522;DHT22;18963;51.504;5.316;2023-04-28T11:48:44;15.80;99.90
32522;DHT22;18963;51.504;5.316;2023-04-28T11:51:26;15.70;99.90
32522;DHT22;18963;51.504;5.316;2023-04-28T11:53:52;15.60;99.90
32522;DHT22;18963;51.504;5.316;2023-04-28T11:56:17;15.50;99.90
32522;DHT22;18963;51.504;5.316;2023-04-28T11:58:44;15.30;99.90
32522;DHT22;18963;51.504;5.316;2023-04-28T12:01:11;15.20;99.90
32522;DHT22;18963;51.504;5.316;2023-04-28T12:03:44;15.10;99.90
32522;DHT22;18963;51.504;5.316;2023-04-28T12:06:10;15.10;99.90
32522;DHT22;18963;51.504;5.316;2023-04-28T12:08:35;15.10;99.90
32522;DHT22;18963;51.504;5.316;2023-04-28T12:11:08;15.00;99.90
32522;DHT22;18963;51.504;5.316;2023-04-28T12:13:42;15.00;99.90
32522;DHT22;18963;51.504;5.316;2023-04-28T12:16:08;14.90;99.90
32522;DHT22;18963;51.504;5.316;2023-04-28T12:18:36;14.90;99.90
32522;DHT22;18963;51.504;5.316;2023-04-28T12:21:03;14.80;99.90
32522;DHT22;18963;51.504;5.316;2023-04-28T12:23:33;14.70;99.90
32522;DHT22;18963;51.504;5.316;2023-04-28T12:26:00;14.60;99.90
32522;DHT22;18963;51.504;5.316;2023-04-28T12:28:39;14.60;99.90
32522;DHT22;18963;51.504;5.316;2023-04-28T12:31:07;14.50;99.90
32522;DHT22;18963;51.504;5.316;2023-04-28T12:33:33;14.50;99.90
32522;DHT22;18963;51.504;5.316;2023-04-28T12:36:03;14.50;99.90
32522;DHT22;18963;51.504;5.316;2023-04-28T12:38:29;14.50;99.90
32522;DHT22;18963;51.504;5.316;2023-04-28T12:40:55;14.40;99.90
32522;DHT22;18963;51.504;5.316;2023-04-28T12:43:21;14.40;99.90
32522;DHT22;18963;51.504;5.316;2023-04-28T12:45:52;14.30;99.90
32522;DHT22;18963;51.504;5.316;2023-04-28T12:48:18;14.30;99.90
32522;DHT22;18963;51.504;5.316;2023-04-28T12:50:44;14.10;99.90
32522;DHT22;18963;51.504;5.316;2023-04-28T12:53:10;13.90;99.90
32522;DHT22;18963;51.504;5.316;2023-04-28T12:55:36;13.80;99.90
32522;DHT22;18963;51.504;5.316;2023-04-28T12:58:05;13.70;99.90
32522;DHT22;18963;51.504;5.316;2023-04-28T13:00:31;13.70;99.90
32522;DHT22;18963;51.504;5.316;2023-04-28T13:02:57;13.70;99.90
32522;DHT22;18963;51.504;5.316;2023-04-28T13:05:23;13.60;99.90
32522;DHT22;18963;51.504;5.316;2023-04-28T13:07:48;13.60;99.90
32522;DHT22;18963;51.504;5.316;2023-04-28T13:10:15;13.50;99.90
32522;DHT22;18963;51.504;5.316;2023-04-28T13:12:42;13.60;99.90
32522;DHT22;18963;51.504;5.316;2023-04-28T13:15:08;13.70;99.90
32522;DHT22;18963;51.504;5.316;2023-04-28T13:17:34;14.00;99.90
32522;DHT22;18963;51.504;5.316;2023-04-28T13:19:59;14.30;99.90
32522;DHT22;18963;51.504;5.316;2023-04-28T13:22:29;14.50;99.90
32522;DHT22;18963;51.504;5.316;2023-04-28T13:24:55;14.70;99.90
32522;DHT22;18963;51.504;5.316;2023-04-28T13:27:20;14.80;99.90
32522;DHT22;18963;51.504;5.316;2023-04-28T13:29:46;15.00;99.90
32522;DHT22;18963;51.504;5.316;2023-04-28T13:32:12;15.00;99.90
32522;DHT22;18963;51.504;5.316;2023-04-28T13:34:37;15.10;99.90
32522;DHT22;18963;51.504;5.316;2023-04-28T13:37:03;15.30;99.90
32522;DHT22;18963;51.504;5.316;2023-04-28T13:39:29;15.40;99.90
32522;DHT22;18963;51.504;5.316;2023-04-28T13:41:54;15.50;99.90
32522;DHT22;18963;51.504;5.316;2023-04-28T13:44:20;15.60;99.90
32522;DHT22;18963;51.504;5.316;2023-04-28T13:46:45;15.60;99.90
32522;DHT22;18963;51.504;5.316;2023-04-28T13:49:12;15.70;99.90
32522;DHT22;18963;51.504;5.316;2023-04-28T13:51:37;15.70;99.90
32522;DHT22;18963;51.504;5.316;2023-04-28T13:54:04;15.80;99.90
32522;DHT22;18963;51.504;5.316;2023-04-28T13:56:32;15.80;99.90
32522;DHT22;18963;51.504;5.316;2023-04-28T13:58:58;15.90;99.90
32522;DHT22;18963;51.504;5.316;2023-04-28T14:01:23;16.00;99.90
32522;DHT22;18963;51.504;5.316;2023-04-28T14:03:49;16.00;99.90
32522;DHT22;18963;51.504;5.316;2023-04-28T14:06:15;16.00;99.90
32522;DHT22;18963;51.504;5.316;2023-04-28T14:08:41;15.80;99.90
32522;DHT22;18963;51.504;5.316;2023-04-28T14:11:06;15.60;99.90
32522;DHT22;18963;51.504;5.316;2023-04-28T14:13:32;15.50;99.90
32522;DHT22;18963;51.504;5.316;2023-04-28T14:15:58;15.20;99.90
32522;DHT22;18963;51.504;5.316;2023-04-28T14:18:23;15.00;99.90
32522;DHT22;18963;51.504;5.316;2023-04-28T14:20:49;14.80;99.90
32522;DHT22;18963;51.504;5.316;2023-04-28T14:23:15;14.70;99.90
32522;DHT22;18963;51.504;5.316;2023-04-28T14:25:41;14.60;99.90
32522;DHT22;18963;51.504;5.316;2023-04-28T14:28:07;14.50;99.90
32522;DHT22;18963;51.504;5.316;2023-04-28T14:30:32;14.50;99.90
32522;DHT22;18963;51.504;5.316;2023-04-28T14:32:58;14.40;99.90
32522;DHT22;18963;51.504;5.316;2023-04-28T14:35:24;14.40;99.90
32522;DHT22;18963;51.504;5.316;2023-04-28T14:37:51;14.30;99.90
32522;DHT22;18963;51.504;5.316;2023-04-28T14:40:17;14.30;99.90
32522;DHT22;18963;51.504;5.316;2023-04-28T14:42:42;14.20;99.90
32522;DHT22;18963;51.504;5.316;2023-04-28T14:45:09;14.20;99.90
32522;DHT22;18963;51.504;5.316;2023-04-28T14:47:36;14.20;99.90
32522;DHT22;18963;51.504;5.316;2023-04-28T14:50:03;14.30;99.90
32522;DHT22;18963;51.504;5.316;2023-04-28T14:52:29;14.50;99.90
32522;DHT22;18963;51.504;5.316;2023-04-28T14:54:57;14.60;99.90
32522;DHT22;18963;51.504;5.316;2023-04-28T14:57:24;14.70;99.90
32522;DHT22;18963;51.504;5.316;2023-04-28T14:59:50;14.80;99.90
32522;DHT22;18963;51.504;5.316;2023-04-28T15:02:20;14.90;99.90
32522;DHT22;18963;51.504;5.316;2023-04-28T15:04:51;15.00;99.90
32522;DHT22;18963;51.504;5.316;2023-04-28T15:07:17;15.10;99.90
32522;DHT22;18963;51.504;5.316;2023-04-28T15:09:43;15.10;99.90
32522;DHT22;18963;51.504;5.316;2023-04-28T15:12:08;15.20;99.90
32522;DHT22;18963;51.504;5.316;2023-04-28T15:14:34;15.30;99.90
32522;DHT22;18963;51.504;5.316;2023-04-28T15:16:59;15.50;99.90
32522;DHT22;18963;51.504;5.316;2023-04-28T15:19:25;15.60;99.90
32522;DHT22;18963;51.504;5.316;2023-04-28T15:21:51;15.70;99.90
32522;DHT22;18963;51.504;5.316;2023-04-28T15:24:18;15.80;99.90
32522;DHT22;18963;51.504;5.316;2023-04-28T15:26:44;15.80;99.90
32522;DHT22;18963;51.504;5.316;2023-04-28T15:29:10;15.70;99.90
32522;DHT22;18963;51.504;5.316;2023-04-28T15:31:36;15.60;99.90
32522;DHT22;18963;51.504;5.316;2023-04-28T15:34:02;15.50;99.90
32522;DHT22;18963;51.504;5.316;2023-04-28T15:36:28;15.30;99.90
32522;DHT22;18963;51.504;5.316;2023-04-28T15:38:53;15.20;99.90
32522;DHT22;18963;51.504;5.316;2023-04-28T15:41:19;15.10;99.90
32522;DHT22;18963;51.504;5.316;2023-04-28T15:43:45;15.00;99.90
32522;DHT22;18963;51.504;5.316;2023-04-28T15:46:11;15.00;99.90
32522;DHT22;18963;51.504;5.316;2023-04-28T15:48:41;15.00;99.90
32522;DHT22;18963;51.504;5.316;2023-04-28T15:51:06;15.10;99.90
32522;DHT22;18963;51.504;5.316;2023-04-28T15:53:32;15.10;99.90
32522;DHT22;18963;51.504;5.316;2023-04-28T15:55:58;15.10;99.90
32522;DHT22;18963;51.504;5.316;2023-04-28T15:58:24;15.20;99.90
32522;DHT22;18963;51.504;5.316;2023-04-28T16:00:50;15.20;99.90